Time;durP1;ratioP1;P1;durP2;ratioP2;P2;SDS_P1;SDS_P2;PMS_P1;PMS_P2;Temp;Humidity;BMP_temperature;BMP_pressure;BME280_temperature;BME280_humidity;BME280_pressure;Samples;Min_cycle;Max_cycle;Signal;HPM_P1;HPM_P2
2021/07/15 00:00:41;;;;;;;0.60;0.60;;;;;;;15.72;79.84;99964.81;10308661;28;21382;-74
2021/07/15 00:05:46;;;;;;;0.90;0.90;;;;;;;15.73;79.56;99972.75;10305724;28;20235;-74
2021/07/15 00:10:53;;;;;;;0.70;0.65;;;;;;;15.72;79.40;99964.81;10309745;28;20719;-74
2021/07/15 00:15:59;;;;;;;0.35;0.35;;;;;;;15.74;79.29;99971.72;10306691;28;20780;-74
2021/07/15 00:21:06;;;;;;;0.25;0.25;;;;;;;15.73;79.16;99966.50;10307019;28;20239;-74
2021/07/15 00:26:10;;;;;;;0.52;0.52;;;;;;;15.77;79.69;99963.28;10305712;28;20243;-74
2021/07/15 00:31:14;;;;;;;0.30;0.30;;;;;;;15.68;79.40;99959.72;10306067;28;20245;-74
2021/07/15 00:36:19;;;;;;;0.68;0.68;;;;;;;15.63;79.88;99956.69;10307566;28;20239;-74
2021/07/15 00:41:22;;;;;;;1.10;1.08;;;;;;;15.73;79.70;99955.66;10306658;28;20350;-74
2021/07/15 00:46:25;;;;;;;5.47;0.80;;;;;;;15.83;79.55;99964.47;10309080;28;20247;-74
2021/07/15 00:51:31;;;;;;;0.30;0.30;;;;;;;15.83;79.13;99975.31;10307407;28;20239;-74
2021/07/15 00:56:35;;;;;;;0.35;0.35;;;;;;;15.79;79.26;99971.22;10313513;28;20242;-74
2021/07/15 01:01:38;;;;;;;1.33;0.90;;;;;;;15.80;79.20;99987.31;10312897;28;20598;-74
2021/07/15 01:06:42;;;;;;;0.40;0.40;;;;;;;15.80;79.23;99994.59;10311493;28;20235;-74
2021/07/15 01:11:51;;;;;;;0.70;0.70;;;;;;;15.76;79.46;100004.06;10311814;28;20227;-74
2021/07/15 01:17:00;;;;;;;0.75;0.75;;;;;;;15.68;79.92;100005.72;10313759;28;21451;-74
2021/07/15 01:22:09;;;;;;;4.60;1.00;;;;;;;15.70;79.99;100011.84;10312029;28;20234;-74
2021/07/15 01:27:39;;;;;;;0.50;0.50;;;;;;;15.72;79.96;100016.25;10312103;28;20243;-74
2021/07/15 01:33:00;;;;;;;0.70;0.70;;;;;;;15.71;80.10;100009.97;10299897;28;20242;-74
2021/07/15 01:38:04;;;;;;;8.77;1.63;;;;;;;15.68;80.20;100013.84;10313857;28;20257;-74
2021/07/15 01:43:11;;;;;;;0.88;0.88;;;;;;;15.62;80.33;100003.69;10312831;28;20262;-74
2021/07/15 01:54:38;;;;;;;0.30;0.30;;;;;;;15.63;80.45;100007.25;10312808;28;20321;-74
2021/07/15 01:59:44;;;;;;;1.83;0.95;;;;;;;15.62;80.55;100000.16;10311924;28;20275;-74
2021/07/15 02:04:47;;;;;;;0.68;0.68;;;;;;;15.63;80.61;100018.06;10311345;28;20230;-74
2021/07/15 02:09:52;;;;;;;0.75;0.73;;;;;;;15.66;80.69;100029.44;10311220;28;20309;-74
2021/07/15 02:14:55;;;;;;;0.52;0.52;;;;;;;15.63;80.44;100016.25;10311118;28;20825;-74
2021/07/15 02:19:59;;;;;;;0.30;0.30;;;;;;;15.61;80.02;100012.00;10312459;28;20275;-74
2021/07/15 02:25:05;;;;;;;1.55;1.02;;;;;;;15.63;80.09;100008.13;10309903;28;20720;-74
2021/07/15 02:30:11;;;;;;;0.88;0.88;;;;;;;15.59;79.72;100004.03;10310963;28;20322;-74
2021/07/15 02:35:18;;;;;;;0.60;0.60;;;;;;;15.55;79.86;99999.09;10312503;28;21369;-74
2021/07/15 02:40:23;;;;;;;0.50;0.50;;;;;;;15.36;80.14;99965.94;10312367;28;20642;-74
2021/07/15 02:45:26;;;;;;;1.17;0.68;;;;;;;15.15;80.59;99966.34;10311111;28;20446;-74
2021/07/15 02:50:29;;;;;;;3.33;0.95;;;;;;;15.03;80.71;99967.66;10311623;28;20273;-74
2021/07/15 02:55:34;;;;;;;0.30;0.30;;;;;;;14.90;81.49;99968.13;10310054;28;20720;-74
2021/07/15 03:00:41;;;;;;;0.45;0.45;;;;;;;14.88;81.59;99980.94;10309223;28;20871;-74
2021/07/15 03:05:52;;;;;;;2.08;0.60;;;;;;;14.80;81.53;99999.84;10293388;28;20247;-74
2021/07/15 03:10:58;;;;;;;0.80;0.80;;;;;;;14.77;81.61;100009.09;10307342;28;20239;-74
2021/07/15 03:16:02;;;;;;;0.38;0.38;;;;;;;14.74;81.77;100022.94;10308128;28;20317;-74
2021/07/15 03:21:05;;;;;;;19.35;6.70;;;;;;;14.71;81.66;100025.97;10310850;28;20246;-74
2021/07/15 03:26:10;;;;;;;13.35;6.75;;;;;;;14.70;82.17;100026.13;10308258;28;20381;-74
2021/07/15 03:31:13;;;;;;;11.95;7.25;;;;;;;14.69;81.90;100027.16;10307916;28;20740;-74
2021/07/15 03:36:17;;;;;;;10.45;6.82;;;;;;;14.64;82.01;100022.22;10308482;28;20263;-74
2021/07/15 03:41:23;;;;;;;16.60;7.97;;;;;;;14.64;81.86;100024.06;10309732;28;20417;-74
2021/07/15 03:46:28;;;;;;;13.50;7.03;;;;;;;14.65;82.14;100044.72;10308459;28;20250;-74
2021/07/15 03:51:34;;;;;;;16.23;8.30;;;;;;;14.70;82.19;100039.66;10309516;28;20322;-73
2021/07/15 03:56:44;;;;;;;15.32;8.77;;;;;;;14.80;81.76;100038.53;10307482;28;20809;-73
2021/07/15 04:01:57;;;;;;;15.75;8.07;;;;;;;14.92;81.51;100046.34;10309817;28;20329;-73
2021/07/15 04:07:04;;;;;;;17.55;8.73;;;;;;;15.05;81.41;100046.78;10308839;28;20242;-74
2021/07/15 04:12:10;;;;;;;15.27;9.55;;;;;;;15.18;80.99;100049.03;10308965;28;20321;-73
2021/07/15 04:17:15;;;;;;;18.90;8.77;;;;;;;15.29;80.20;100050.59;10307353;28;20334;-74
2021/07/15 04:22:19;;;;;;;13.07;8.07;;;;;;;15.40;80.28;100044.94;10309673;28;20318;-74
2021/07/15 04:27:24;;;;;;;16.45;7.50;;;;;;;15.36;79.28;100046.25;10313654;28;20300;-74
2021/07/15 04:32:29;;;;;;;11.88;7.90;;;;;;;15.29;79.77;100045.19;10314720;28;20230;-74
2021/07/15 04:37:33;;;;;;;13.00;8.00;;;;;;;15.35;79.87;100061.66;10311480;28;20231;-73
2021/07/15 04:42:38;;;;;;;12.30;7.13;;;;;;;15.44;79.39;100071.50;10294226;28;20239;-73
2021/07/15 04:47:44;;;;;;;17.67;7.00;;;;;;;15.44;79.49;100073.34;10315886;28;20238;-74
2021/07/15 04:52:50;;;;;;;12.93;7.97;;;;;;;15.50;79.45;100086.25;10314800;28;20235;-73
2021/07/15 04:57:56;;;;;;;19.20;7.43;;;;;;;15.52;78.87;100081.50;10314695;28;20294;-73
2021/07/15 05:03:01;;;;;;;13.07;7.32;;;;;;;15.46;79.10;100087.56;10314793;28;20609;-73
2021/07/15 05:08:05;;;;;;;12.65;7.22;;;;;;;15.48;78.81;100093.66;10311131;28;20289;-73
2021/07/15 05:13:09;;;;;;;15.13;7.78;;;;;;;15.57;78.74;100094.53;10311815;28;20239;-73
2021/07/15 05:18:12;;;;;;;14.15;7.20;;;;;;;15.66;78.41;100077.31;10313403;28;20273;-73
2021/07/15 05:23:15;;;;;;;15.73;8.07;;;;;;;15.75;78.33;100084.47;10313322;28;20238;-73
2021/07/15 05:28:20;;;;;;;11.38;6.93;;;;;;;15.80;77.91;100073.13;10312501;28;20243;-73
2021/07/15 05:33:27;;;;;;;11.63;7.47;;;;;;;16.04;77.55;100073.16;10312161;28;20231;-73
2021/07/15 05:38:29;;;;;;;16.45;8.07;;;;;;;16.19;77.46;100084.19;10311414;28;20246;-73
2021/07/15 05:43:34;;;;;;;12.70;7.40;;;;;;;16.43;77.04;100080.69;10313667;28;20242;-73
2021/07/15 05:48:37;;;;;;;13.80;7.05;;;;;;;16.52;76.36;100089.66;10311517;28;20243;-72
2021/07/15 05:53:40;;;;;;;12.73;7.32;;;;;;;16.86;75.82;100089.41;10312514;28;20235;-72
2021/07/15 05:58:44;;;;;;;9.85;7.20;;;;;;;17.03;74.82;100101.94;10312703;28;20797;-72
2021/07/15 06:03:47;;;;;;;16.80;7.53;;;;;;;17.23;74.44;100102.44;10293183;28;20231;-72
2021/07/15 06:08:52;;;;;;;16.70;7.25;;;;;;;17.23;73.98;100101.59;10310050;28;20257;-72
2021/07/15 06:13:56;;;;;;;12.18;6.22;;;;;;;17.35;74.01;100111.03;10316126;28;20238;-73
2021/07/15 06:18:59;;;;;;;10.18;5.63;;;;;;;17.58;73.12;100124.72;10312055;28;20243;-73
2021/07/15 06:24:02;;;;;;;18.48;6.20;;;;;;;17.80;72.78;100133.06;10342637;28;20235;-73
2021/07/15 06:29:06;;;;;;;11.25;6.30;;;;;;;18.09;71.66;100127.00;10350129;28;20243;-75
2021/07/15 06:34:10;;;;;;;9.13;5.13;;;;;;;18.22;70.40;100135.41;10354824;28;20231;-74
2021/07/15 06:39:14;;;;;;;8.65;5.15;;;;;;;17.92;70.73;100120.78;10354440;28;20227;-74
2021/07/15 06:44:18;;;;;;;9.18;4.72;;;;;;;17.60;71.85;100122.63;10350580;28;20238;-74
2021/07/15 06:49:22;;;;;;;7.57;4.00;;;;;;;17.64;73.02;100126.72;10351151;28;20288;-76
2021/07/15 06:54:25;;;;;;;8.80;5.50;;;;;;;17.66;71.54;100126.50;10323886;28;20816;-78
2021/07/15 06:59:29;;;;;;;5.45;4.10;;;;;;;17.96;71.27;100118.56;10310087;28;20242;-75
2021/07/15 07:04:32;;;;;;;4.43;2.90;;;;;;;18.20;70.49;100136.63;10312101;28;20715;-75
2021/07/15 07:09:35;;;;;;;5.47;3.15;;;;;;;18.55;69.62;100130.56;10325262;28;20231;-75
2021/07/15 07:14:46;;;;;;;5.43;3.00;;;;;;;18.49;68.68;100125.88;8890381;32;20669;-75
2021/07/15 07:19:49;;;;;;;4.40;2.70;;;;;;;18.88;67.67;100121.31;10411695;28;20275;-74
2021/07/15 07:24:52;;;;;;;3.80;2.90;;;;;;;19.16;67.78;100132.41;10392023;28;20718;-75
2021/07/15 07:29:57;;;;;;;2.40;2.20;;;;;;;19.24;64.17;100130.44;10386876;28;20703;-75
2021/07/15 07:35:00;;;;;;;2.40;1.95;;;;;;;19.17;63.29;100129.50;10385714;28;20332;-74
2021/07/15 07:40:04;;;;;;;1.00;1.00;;;;;;;19.33;59.24;100136.63;10387211;28;20241;-74
2021/07/15 07:45:10;;;;;;;1.70;1.60;;;;;;;19.30;60.86;100130.72;10384448;28;20241;-74
2021/07/15 07:50:15;;;;;;;2.88;1.77;;;;;;;19.50;62.36;100140.03;10382473;28;20259;-74
2021/07/15 07:55:18;;;;;;;3.08;1.52;;;;;;;19.87;61.62;100135.50;10381515;28;20248;-74
2021/07/15 08:00:22;;;;;;;3.17;1.50;;;;;;;21.04;57.57;100143.41;10344258;28;20234;-74
2021/07/15 08:05:28;;;;;;;2.25;1.70;;;;;;;21.19;56.85;100135.94;10342623;28;20779;-74
2021/07/15 08:10:31;;;;;;;1.63;1.52;;;;;;;20.93;56.96;100142.03;10366227;28;20238;-74
2021/07/15 08:15:35;;;;;;;1.60;1.50;;;;;;;21.43;55.72;100151.00;10350286;28;20711;-74
2021/07/15 08:20:39;;;;;;;2.33;1.65;;;;;;;22.48;53.26;100156.28;10339846;28;20743;-74
2021/07/15 08:25:42;;;;;;;1.42;1.33;;;;;;;22.86;53.88;100163.91;10313952;28;20250;-74
2021/07/15 08:37:34;;;;;;;1.40;1.30;;;;;;;23.69;52.08;100190.78;10351849;28;20238;-74
2021/07/15 08:42:39;;;;;;;1.30;1.20;;;;;;;23.39;50.24;100194.03;10354042;28;20330;-74
2021/07/15 08:47:43;;;;;;;1.60;1.20;;;;;;;22.92;50.14;100193.19;10352930;28;20238;-74
2021/07/15 08:52:49;;;;;;;1.40;1.30;;;;;;;22.52;50.78;100196.72;10352518;28;20245;-75
2021/07/15 08:57:52;;;;;;;2.30;1.52;;;;;;;22.67;52.07;100192.94;10352423;28;20257;-75
2021/07/15 09:02:55;;;;;;;2.83;1.50;;;;;;;22.95;53.60;100195.50;10354112;28;20230;-73
2021/07/15 09:08:00;;;;;;;1.52;1.42;;;;;;;22.29;56.38;100198.94;10351419;28;21388;-74
2021/07/15 09:13:04;;;;;;;1.48;1.30;;;;;;;22.43;54.78;100200.69;10349505;28;20373;-74
2021/07/15 09:18:13;;;;;;;4.75;1.48;;;;;;;22.58;56.02;100203.25;10350845;28;20238;-74
2021/07/15 09:23:19;;;;;;;2.78;1.27;;;;;;;22.83;54.37;100202.66;10351625;28;20261;-74
2021/07/15 09:28:27;;;;;;;2.80;1.50;;;;;;;22.72;54.58;100207.69;10350932;28;20246;-75
2021/07/15 09:33:37;;;;;;;3.55;1.58;;;;;;;22.68;54.87;100200.09;10349215;28;20874;-73
2021/07/15 09:38:42;;;;;;;2.25;1.60;;;;;;;22.38;53.80;100205.94;10350254;28;20321;-74
2021/07/15 09:43:46;;;;;;;1.50;1.40;;;;;;;22.92;54.22;100204.13;10349956;28;20241;-74
2021/07/15 09:48:51;;;;;;;2.30;1.60;;;;;;;23.52;52.39;100190.41;10351403;28;20651;-74
2021/07/15 09:54:04;;;;;;;2.40;1.67;;;;;;;23.64;49.28;100197.78;10348980;28;21415;-74
2021/07/15 09:59:06;;;;;;;1.80;1.67;;;;;;;23.30;52.06;100200.78;10349297;28;20722;-74
2021/07/15 10:04:10;;;;;;;4.10;1.50;;;;;;;23.28;51.59;100197.41;10349597;28;20234;-74
2021/07/15 10:09:25;;;;;;;2.22;1.30;;;;;;;23.59;51.69;100199.47;10350740;28;20239;-74
2021/07/15 10:14:36;;;;;;;1.38;1.27;;;;;;;23.55;52.18;100203.69;10350049;28;20801;-75
2021/07/15 10:19:39;;;;;;;1.90;1.65;;;;;;;23.03;51.50;100202.66;10349323;28;20269;-75
2021/07/15 10:24:44;;;;;;;1.65;1.55;;;;;;;24.90;49.49;100188.09;10352699;28;20233;-75
2021/07/15 10:29:49;;;;;;;4.90;1.60;;;;;;;25.46;47.36;100191.84;10350010;28;20238;-74
2021/07/15 10:34:54;;;;;;;1.27;1.23;;;;;;;25.31;47.18;100185.84;10348468;28;20238;-74
2021/07/15 10:40:00;;;;;;;1.70;1.60;;;;;;;23.49;49.80;100193.59;10348768;28;20241;-75
2021/07/15 10:45:04;;;;;;;1.73;1.63;;;;;;;24.29;48.59;100188.66;10348039;28;20742;-74
2021/07/15 10:50:09;;;;;;;1.50;1.40;;;;;;;26.19;45.29;100191.00;10352535;28;20707;-74
2021/07/15 10:55:15;;;;;;;1.95;1.42;;;;;;;27.59;42.79;100203.44;10347285;28;20250;-75
2021/07/15 11:00:23;;;;;;;1.40;1.30;;;;;;;28.62;40.72;100202.81;10349733;28;20241;-75
2021/07/15 11:05:27;;;;;;;3.38;1.50;;;;;;;28.08;41.96;100203.09;10347639;28;20245;-75
2021/07/15 11:10:35;;;;;;;2.38;1.45;;;;;;;28.99;41.33;100216.16;10351300;28;20265;-74
2021/07/15 11:15:49;;;;;;;1.58;1.30;;;;;;;29.59;38.37;100212.69;10319090;28;20257;-74
2021/07/15 11:20:53;;;;;;;1.60;1.50;;;;;;;28.23;40.85;100221.94;10310425;28;20230;-75
2021/07/15 11:25:57;;;;;;;2.40;1.40;;;;;;;26.86;42.60;100210.19;10310111;28;21372;-74
2021/07/15 11:31:00;;;;;;;2.08;1.52;;;;;;;26.10;43.15;100225.41;10309109;28;20250;-74
2021/07/15 11:36:26;;;;;;;1.70;1.60;;;;;;;26.24;44.41;100220.59;10307531;28;20235;-75
2021/07/15 11:41:45;;;;;;;1.60;1.50;;;;;;;26.01;41.87;100227.63;10306090;28;20806;-75
2021/07/15 11:46:48;;;;;;;1.55;1.33;;;;;;;28.18;38.89;100224.56;10361435;28;20733;-75
2021/07/15 11:52:04;;;;;;;2.00;1.20;;;;;;;30.07;36.68;100225.00;10347291;28;20226;-76
2021/07/15 11:57:30;;;;;;;3.03;1.40;;;;;;;30.62;35.38;100225.91;10362458;28;20722;-77
2021/07/15 12:02:37;;;;;;;2.85;1.48;;;;;;;28.04;40.64;100230.38;10355066;28;20230;-76
2021/07/15 12:07:44;;;;;;;1.80;1.70;;;;;;;26.00;43.20;100247.09;10355046;28;20234;-75
2021/07/15 12:12:49;;;;;;;1.63;1.38;;;;;;;26.24;42.94;100243.44;10316914;28;20235;-76
2021/07/15 12:17:55;;;;;;;1.98;1.40;;;;;;;25.83;42.11;100250.47;10314099;28;20231;-76
2021/07/15 12:22:59;;;;;;;1.17;1.17;;;;;;;25.96;42.50;100252.25;10316606;28;20242;-77
2021/07/15 12:28:06;;;;;;;1.75;1.40;;;;;;;25.92;44.48;100251.03;10315071;28;20238;-76
2021/07/15 12:33:09;;;;;;;1.90;1.50;;;;;;;25.94;44.20;100253.53;10314117;28;20247;-77
2021/07/15 12:38:18;;;;;;;2.03;1.48;;;;;;;26.18;44.20;100260.88;10313766;28;20680;-76
2021/07/15 12:43:22;;;;;;;1.50;1.23;;;;;;;26.32;42.55;100256.06;10316183;28;20247;-76
2021/07/15 12:48:40;;;;;;;2.15;1.20;;;;;;;27.54;40.53;100252.97;10311275;28;20247;-77
2021/07/15 12:53:46;;;;;;;2.45;1.38;;;;;;;29.62;37.15;100247.34;10314876;28;20250;-76
2021/07/15 12:59:06;;;;;;;1.83;1.42;;;;;;;29.32;36.73;100259.59;10310853;28;20646;-76
2021/07/15 13:04:11;;;;;;;1.77;1.65;;;;;;;29.17;36.96;100245.53;10346501;28;20238;-76
2021/07/15 13:09:21;;;;;;;1.40;1.30;;;;;;;29.22;36.83;100251.13;10352710;28;20872;-76
2021/07/15 13:14:25;;;;;;;1.60;1.50;;;;;;;28.28;37.64;100249.66;10345911;28;20734;-76
2021/07/15 13:19:35;;;;;;;1.30;1.20;;;;;;;27.71;40.00;100252.25;10351859;28;20226;-76
2021/07/15 13:24:39;;;;;;;1.60;1.50;;;;;;;28.18;39.49;100247.50;10352205;28;20916;-77
2021/07/15 13:29:45;;;;;;;1.50;1.40;;;;;;;27.80;40.60;100248.84;10340669;28;20231;-76
2021/07/15 13:34:50;;;;;;;1.50;1.40;;;;;;;27.68;40.36;100244.47;10309279;28;20239;-76
2021/07/15 13:39:53;;;;;;;1.77;1.30;;;;;;;27.33;42.05;100248.00;10313561;28;20246;-76
2021/07/15 13:44:59;;;;;;;1.50;1.40;;;;;;;28.10;40.43;100241.53;10311984;28;20238;-76
2021/07/15 13:50:06;;;;;;;1.75;1.40;;;;;;;28.58;38.98;100246.69;10310269;28;20231;-76
2021/07/15 13:55:11;;;;;;;1.45;1.25;;;;;;;28.30;40.06;100236.41;10333059;28;20238;-77
2021/07/15 14:00:19;;;;;;;1.30;1.17;;;;;;;28.78;40.26;100229.63;10350133;28;20238;-76
2021/07/15 14:05:24;;;;;;;2.85;1.40;;;;;;;28.93;39.09;100235.44;10348529;28;20242;-76
2021/07/15 14:10:29;;;;;;;1.50;1.40;;;;;;;28.54;37.43;100233.59;10348259;28;20286;-75
2021/07/15 14:15:34;;;;;;;1.42;1.33;;;;;;;28.35;37.89;100241.19;10354378;28;21719;-76
2021/07/15 14:20:40;;;;;;;2.53;1.55;;;;;;;27.82;39.77;100235.66;10356766;28;20648;-76
2021/07/15 14:25:44;;;;;;;2.15;1.50;;;;;;;28.24;38.77;100234.63;10357117;28;20248;-76
2021/07/15 14:30:51;;;;;;;1.50;1.40;;;;;;;28.65;39.64;100252.03;10359550;28;20747;-75
2021/07/15 14:35:54;;;;;;;1.40;1.30;;;;;;;29.14;37.46;100244.09;10352520;28;20238;-77
2021/07/15 14:40:57;;;;;;;1.27;1.17;;;;;;;29.56;37.59;100246.41;10367684;28;20257;-76
2021/07/15 14:46:02;;;;;;;2.85;1.75;;;;;;;29.85;35.96;100243.53;10362110;28;20234;-77
2021/07/15 14:51:05;;;;;;;3.65;1.33;;;;;;;29.50;36.42;100233.59;10366213;28;20234;-76
2021/07/15 14:56:08;;;;;;;3.03;1.30;;;;;;;29.15;35.41;100241.09;10349354;28;20238;-76
2021/07/15 15:01:12;;;;;;;2.22;1.42;;;;;;;28.81;37.07;100231.88;10353697;28;20237;-76
2021/07/15 15:06:15;;;;;;;1.45;1.30;;;;;;;28.52;36.89;100244.88;10353206;28;20633;-77
2021/07/15 15:11:18;;;;;;;1.60;1.50;;;;;;;28.77;36.76;100235.38;10352126;28;20909;-76
2021/07/15 15:16:22;;;;;;;1.60;1.38;;;;;;;29.07;36.23;100235.13;10350319;28;20242;-77
2021/07/15 15:21:25;;;;;;;1.67;1.17;;;;;;;29.15;36.91;100231.94;10314324;28;20238;-77
2021/07/15 15:26:28;;;;;;;1.45;1.30;;;;;;;30.82;35.63;100234.44;10310951;28;21694;-77
2021/07/15 15:31:32;;;;;;;1.92;1.20;;;;;;;30.95;35.01;100235.97;10315938;28;20231;-77
2021/07/15 15:36:35;;;;;;;1.50;1.40;;;;;;;29.21;38.50;100236.47;10356010;28;20915;-77
2021/07/15 15:41:39;;;;;;;2.00;1.25;;;;;;;31.01;36.00;100221.03;10365420;28;20245;-77
2021/07/15 15:47:05;;;;;;;2.42;1.40;;;;;;;32.94;32.86;100216.72;10361938;28;20237;-76
2021/07/15 15:52:10;;;;;;;3.60;1.20;;;;;;;31.64;33.06;100221.22;10365348;28;20233;-75
2021/07/15 15:57:13;;;;;;;1.50;1.40;;;;;;;31.32;33.20;100216.63;10369674;28;20244;-75
2021/07/15 16:02:18;;;;;;;2.20;1.48;;;;;;;29.55;37.04;100228.97;10363435;28;21425;-76
2021/07/15 16:07:21;;;;;;;1.45;1.35;;;;;;;28.66;39.18;100231.59;10366161;28;20424;-76
2021/07/15 16:12:27;;;;;;;2.33;1.45;;;;;;;29.15;35.58;100224.50;10364407;28;21352;-77
2021/07/15 16:17:31;;;;;;;1.63;1.40;;;;;;;28.85;38.09;100224.78;10361958;28;20241;-76
2021/07/15 16:22:34;;;;;;;1.73;1.42;;;;;;;30.10;36.94;100227.25;10360630;28;20246;-76
2021/07/15 16:27:38;;;;;;;2.05;1.50;;;;;;;29.11;37.78;100231.59;10360491;28;21775;-77
2021/07/15 16:32:43;;;;;;;1.67;1.45;;;;;;;30.12;35.75;100238.06;10361234;28;20238;-77
2021/07/15 16:37:47;;;;;;;1.58;1.35;;;;;;;31.61;33.00;100229.28;10358990;28;20246;-76
2021/07/15 16:42:51;;;;;;;2.00;1.40;;;;;;;32.32;32.50;100237.16;10361437;28;20253;-76
2021/07/15 16:47:56;;;;;;;1.88;1.40;;;;;;;34.39;29.42;100246.78;10343605;28;20245;-76
2021/07/15 16:52:59;;;;;;;2.53;1.60;;;;;;;30.58;34.50;100253.31;10389970;28;20264;-76
2021/07/15 16:58:02;;;;;;;2.65;1.65;;;;;;;28.13;40.49;100263.94;10401937;28;20618;-76
2021/07/15 17:03:07;;;;;;;1.63;1.52;;;;;;;26.18;46.19;100265.53;10377922;28;20233;-76
2021/07/15 17:08:10;;;;;;;1.42;1.33;;;;;;;25.27;49.09;100258.84;10362984;28;20243;-75
2021/07/15 17:13:13;;;;;;;1.73;1.63;;;;;;;25.53;48.66;100257.75;10356248;28;20257;-76
2021/07/15 17:18:18;;;;;;;2.42;2.00;;;;;;;25.96;46.28;100257.75;10361250;28;20239;-77
2021/07/15 17:23:21;;;;;;;2.58;1.75;;;;;;;26.66;45.43;100256.47;10352956;28;20825;-77
2021/07/15 17:28:27;;;;;;;2.33;1.80;;;;;;;28.22;41.47;100253.38;10362365;28;20234;-77
2021/07/15 17:33:32;;;;;;;2.95;2.00;;;;;;;31.60;36.72;100247.88;10379078;28;20716;-77
2021/07/15 17:38:35;;;;;;;2.88;1.90;;;;;;;36.17;29.26;100230.41;10374610;28;20241;-77
2021/07/15 17:43:39;;;;;;;2.85;1.80;;;;;;;33.77;31.08;100240.59;10392810;28;20245;-75
2021/07/15 17:48:43;;;;;;;3.00;1.80;;;;;;;29.33;39.86;100248.28;10391127;28;20351;-77
2021/07/15 17:53:51;;;;;;;2.42;1.90;;;;;;;27.63;42.49;100245.16;10395429;28;20238;-76
2021/07/15 17:58:54;;;;;;;1.88;1.65;;;;;;;26.15;46.76;100253.06;10393479;28;20244;-76
2021/07/15 18:03:58;;;;;;;3.42;2.28;;;;;;;25.56;48.26;100244.41;10365692;28;20780;-75
2021/07/15 18:09:01;;;;;;;4.13;3.17;;;;;;;25.11;50.16;100266.56;10356456;28;20238;-77
2021/07/15 18:14:04;;;;;;;13.82;9.95;;;;;;;24.76;55.05;100288.09;10367530;28;20238;-76
2021/07/15 18:19:08;;;;;;;14.82;10.73;;;;;;;24.58;56.39;100288.03;10359264;28;20269;-76
2021/07/15 18:24:11;;;;;;;23.05;13.50;;;;;;;24.00;59.69;100286.13;10391317;28;20257;-76
2021/07/15 18:29:14;;;;;;;19.08;14.25;;;;;;;23.91;60.00;100296.44;10394017;28;20325;-76
2021/07/15 18:34:18;;;;;;;26.02;16.67;;;;;;;23.54;62.05;100306.19;10391603;28;20238;-76
2021/07/15 18:39:25;;;;;;;25.45;17.60;;;;;;;23.38;62.24;100318.41;10381174;28;20742;-77
2021/07/15 18:44:29;;;;;;;33.40;20.40;;;;;;;23.26;62.80;100322.81;10388323;28;20222;-76
2021/07/15 18:49:33;;;;;;;31.98;20.15;;;;;;;23.06;63.68;100325.50;10349322;28;20241;-76
2021/07/15 18:54:36;;;;;;;34.72;20.13;;;;;;;22.87;64.57;100335.38;10350877;28;20242;-75
2021/07/15 18:59:39;;;;;;;29.95;18.92;;;;;;;22.68;64.97;100342.47;10352064;28;20630;-75
2021/07/15 19:04:45;;;;;;;32.65;21.48;;;;;;;22.50;65.57;100345.78;10363275;28;20237;-76
2021/07/15 19:09:48;;;;;;;35.03;22.67;;;;;;;22.36;66.55;100354.94;10395003;28;20244;-76
2021/07/15 19:14:51;;;;;;;37.53;24.30;;;;;;;22.21;66.89;100355.06;10378034;28;20238;-76
2021/07/15 19:19:55;;;;;;;37.00;24.20;;;;;;;22.22;66.60;100367.72;10360063;28;20237;-76
2021/07/15 19:24:58;;;;;;;45.13;24.55;;;;;;;22.05;67.45;100370.75;10359169;28;20230;-76
2021/07/15 19:30:06;;;;;;;50.00;25.13;;;;;;;21.90;67.61;100383.69;10362276;28;20258;-76
2021/07/15 19:35:12;;;;;;;39.95;24.40;;;;;;;21.92;67.55;100386.22;10360022;28;20244;-76
2021/07/15 19:40:18;;;;;;;41.42;25.23;;;;;;;21.91;67.32;100400.91;10354821;28;20241;-76
2021/07/15 19:45:23;;;;;;;38.40;24.40;;;;;;;21.63;67.92;100404.44;10354388;28;20238;-76
2021/07/15 19:50:29;;;;;;;37.50;24.35;;;;;;;21.46;68.75;100406.59;10352026;28;20897;-76
2021/07/15 19:55:32;;;;;;;40.20;24.05;;;;;;;21.50;68.50;100421.56;10351653;28;20624;-76
2021/07/15 20:00:35;;;;;;;40.75;24.20;;;;;;;21.46;68.44;100431.19;10350392;28;20235;-75
2021/07/15 20:05:40;;;;;;;40.45;23.83;;;;;;;21.46;68.58;100439.41;10348415;28;20241;-76
2021/07/15 20:10:43;;;;;;;45.75;24.27;;;;;;;21.30;69.13;100445.94;10354185;28;20750;-77
2021/07/15 20:15:46;;;;;;;37.38;22.90;;;;;;;21.17;69.05;100452.13;10360372;28;20245;-77
2021/07/15 20:20:51;;;;;;;41.70;24.13;;;;;;;20.99;69.03;100449.78;10367791;28;20233;-76
2021/07/15 20:25:54;;;;;;;40.13;23.65;;;;;;;20.77;69.91;100457.06;10338715;28;20238;-76
2021/07/15 20:30:57;;;;;;;41.40;23.38;;;;;;;20.76;69.70;100449.91;10339134;28;21534;-76
2021/07/15 20:36:01;;;;;;;36.28;22.85;;;;;;;20.56;69.76;100459.69;10352552;28;20893;-76
2021/07/15 20:41:04;;;;;;;41.75;24.17;;;;;;;20.36;70.11;100455.84;10356843;28;20612;-76
2021/07/15 20:46:07;;;;;;;36.65;21.30;;;;;;;20.33;70.20;100473.41;10353667;28;20273;-76
2021/07/15 20:51:21;;;;;;;33.95;21.20;;;;;;;20.22;70.51;100471.97;10345798;28;20227;-76
2021/07/15 20:56:24;;;;;;;33.15;19.55;;;;;;;20.19;70.17;100485.13;10274157;28;20809;-76
2021/07/15 21:01:27;;;;;;;36.08;20.45;;;;;;;20.12;70.44;100483.13;10277638;28;20246;-77
2021/07/15 21:06:32;;;;;;;30.98;18.50;;;;;;;19.76;70.79;100493.81;10272028;28;20699;-75
2021/07/15 21:11:35;;;;;;;36.95;19.50;;;;;;;19.62;71.69;100491.88;10295646;28;20245;-75
2021/07/15 21:16:38;;;;;;;29.60;19.15;;;;;;;19.53;71.58;100499.25;10341988;28;20812;-74
2021/07/15 21:21:42;;;;;;;29.38;18.33;;;;;;;19.59;71.29;100514.06;10350484;28;20230;-75
2021/07/15 21:26:46;;;;;;;28.50;17.05;;;;;;;19.41;71.73;100520.56;10353126;28;21357;-75
2021/07/15 21:31:49;;;;;;;29.65;16.85;;;;;;;19.52;71.10;100522.03;10359521;28;20715;-76
2021/07/15 21:36:53;;;;;;;28.08;16.63;;;;;;;19.46;70.56;100522.78;10353435;28;20242;-76
2021/07/15 21:41:58;;;;;;;23.88;15.90;;;;;;;19.39;70.49;100525.38;10351586;28;20230;-76
2021/07/15 21:47:01;;;;;;;21.27;14.25;;;;;;;19.28;70.58;100524.91;10349433;28;20243;-76
2021/07/15 21:52:06;;;;;;;26.75;16.10;;;;;;;19.10;69.71;100547.78;10351348;28;20234;-76
2021/07/15 21:57:09;;;;;;;25.63;15.68;;;;;;;19.04;69.34;100548.50;10336360;28;20250;-76
2021/07/15 22:02:13;;;;;;;28.35;16.52;;;;;;;18.83;69.51;100554.53;10339263;28;20226;-76
2021/07/15 22:07:18;;;;;;;30.08;16.80;;;;;;;18.86;69.53;100566.94;10338517;28;20234;-75
2021/07/15 22:12:26;;;;;;;24.58;16.13;;;;;;;18.95;69.32;100574.91;10341946;28;20768;-75
2021/07/15 22:17:35;;;;;;;26.13;14.80;;;;;;;18.95;69.30;100572.19;10318857;28;20238;-75
2021/07/15 22:22:47;;;;;;;27.75;15.75;;;;;;;18.96;69.11;100578.47;10377832;28;20241;-75
2021/07/15 22:28:08;;;;;;;26.92;15.27;;;;;;;18.92;69.18;100579.84;10387110;28;20240;-76
2021/07/15 22:33:32;;;;;;;26.92;15.75;;;;;;;18.88;69.44;100564.91;10361164;28;20230;-76
2021/07/15 22:39:07;;;;;;;28.45;15.68;;;;;;;18.75;69.89;100577.13;10374024;28;20249;-76
2021/07/15 22:44:23;;;;;;;30.77;15.55;;;;;;;18.80;69.67;100582.94;10405626;28;20229;-76
2021/07/15 22:49:31;;;;;;;24.63;14.50;;;;;;;18.73;69.68;100584.63;10325022;28;20730;-76
2021/07/15 22:54:36;;;;;;;25.25;14.65;;;;;;;18.79;69.67;100583.97;10349341;28;20317;-75
2021/07/15 22:59:39;;;;;;;22.48;13.82;;;;;;;18.71;69.80;100585.81;10346619;28;20238;-77
2021/07/15 23:04:42;;;;;;;26.00;14.45;;;;;;;18.66;69.57;100580.03;10349106;28;20237;-76
2021/07/15 23:09:46;;;;;;;22.05;13.23;;;;;;;18.65;69.57;100589.22;10347224;28;20245;-76
2021/07/15 23:14:49;;;;;;;23.23;13.05;;;;;;;18.53;69.79;100584.13;10348488;28;20715;-76
2021/07/15 23:19:52;;;;;;;27.10;13.40;;;;;;;18.66;69.23;100580.03;10345547;28;21383;-76
2021/07/15 23:24:56;;;;;;;26.50;14.27;;;;;;;18.51;69.28;100594.34;10346092;28;20237;-76
2021/07/15 23:29:59;;;;;;;24.60;13.40;;;;;;;18.50;69.42;100589.06;10345698;28;20616;-76